sensor_id;sensor_type;location;lat;lon;timestamp;temperature;humidity
45785;DHT22;31489;51.404;5.474;2024-03-08T00:01:12;9.90;60.70
45785;DHT22;31489;51.404;5.474;2024-03-08T00:03:38;9.90;60.70
45785;DHT22;31489;51.404;5.474;2024-03-08T00:06:05;9.80;60.70
45785;DHT22;31489;51.404;5.474;2024-03-08T00:08:31;9.80;60.70
45785;DHT22;31489;51.404;5.474;2024-03-08T00:10:57;9.70;60.70
45785;DHT22;31489;51.404;5.474;2024-03-08T00:13:22;9.80;60.80
45785;DHT22;31489;51.404;5.474;2024-03-08T00:15:50;9.70;60.80
45785;DHT22;31489;51.404;5.474;2024-03-08T00:18:16;9.70;60.70
45785;DHT22;31489;51.404;5.474;2024-03-08T00:20:42;9.70;60.70
45785;DHT22;31489;51.404;5.474;2024-03-08T00:23:09;9.60;60.70
45785;DHT22;31489;51.404;5.474;2024-03-08T00:25:36;9.60;60.70
45785;DHT22;31489;51.404;5.474;2024-03-08T00:28:01;9.60;60.70
45785;DHT22;31489;51.404;5.474;2024-03-08T00:30:30;9.60;60.80
45785;DHT22;31489;51.404;5.474;2024-03-08T00:32:56;9.50;60.80
45785;DHT22;31489;51.404;5.474;2024-03-08T00:35:22;9.50;60.80
45785;DHT22;31489;51.404;5.474;2024-03-08T00:37:48;9.50;60.60
45785;DHT22;31489;51.404;5.474;2024-03-08T00:40:14;9.50;60.50
45785;DHT22;31489;51.404;5.474;2024-03-08T00:42:39;9.50;60.50
45785;DHT22;31489;51.404;5.474;2024-03-08T00:45:07;9.50;60.50
45785;DHT22;31489;51.404;5.474;2024-03-08T00:47:33;9.40;60.40
45785;DHT22;31489;51.404;5.474;2024-03-08T00:49:58;9.40;60.50
45785;DHT22;31489;51.404;5.474;2024-03-08T00:52:24;9.40;60.50
45785;DHT22;31489;51.404;5.474;2024-03-08T00:54:50;9.40;60.50
45785;DHT22;31489;51.404;5.474;2024-03-08T00:57:16;9.40;60.60
45785;DHT22;31489;51.404;5.474;2024-03-08T00:59:41;9.40;60.70
45785;DHT22;31489;51.404;5.474;2024-03-08T01:02:07;9.30;60.60
45785;DHT22;31489;51.404;5.474;2024-03-08T01:04:34;9.30;60.60
45785;DHT22;31489;51.404;5.474;2024-03-08T01:07:00;9.30;60.50
45785;DHT22;31489;51.404;5.474;2024-03-08T01:09:26;9.30;60.70
45785;DHT22;31489;51.404;5.474;2024-03-08T01:11:53;9.20;60.50
45785;DHT22;31489;51.404;5.474;2024-03-08T01:14:20;9.20;60.60
45785;DHT22;31489;51.404;5.474;2024-03-08T01:16:48;9.20;60.50
45785;DHT22;31489;51.404;5.474;2024-03-08T01:19:14;9.20;60.50
45785;DHT22;31489;51.404;5.474;2024-03-08T01:21:40;9.20;60.50
45785;DHT22;31489;51.404;5.474;2024-03-08T01:24:06;9.10;60.50
45785;DHT22;31489;51.404;5.474;2024-03-08T01:26:32;9.10;60.60
45785;DHT22;31489;51.404;5.474;2024-03-08T01:28:59;9.10;60.50
45785;DHT22;31489;51.404;5.474;2024-03-08T01:31:25;9.00;60.50
45785;DHT22;31489;51.404;5.474;2024-03-08T01:33:51;9.10;60.70
45785;DHT22;31489;51.404;5.474;2024-03-08T01:36:16;9.00;60.60
45785;DHT22;31489;51.404;5.474;2024-03-08T01:38:44;9.00;60.70
45785;DHT22;31489;51.404;5.474;2024-03-08T01:41:10;9.00;60.70
45785;DHT22;31489;51.404;5.474;2024-03-08T01:43:38;9.00;60.70
45785;DHT22;31489;51.404;5.474;2024-03-08T01:46:05;9.00;60.80
45785;DHT22;31489;51.404;5.474;2024-03-08T01:48:31;9.00;60.60
45785;DHT22;31489;51.404;5.474;2024-03-08T01:50:57;9.00;60.60
45785;DHT22;31489;51.404;5.474;2024-03-08T01:53:24;8.90;60.50
45785;DHT22;31489;51.404;5.474;2024-03-08T01:55:54;8.90;60.60
45785;DHT22;31489;51.404;5.474;2024-03-08T01:58:20;8.90;60.60
45785;DHT22;31489;51.404;5.474;2024-03-08T02:00:48;8.90;60.50
45785;DHT22;31489;51.404;5.474;2024-03-08T02:03:17;8.90;60.60
45785;DHT22;31489;51.404;5.474;2024-03-08T02:05:43;8.80;60.50
45785;DHT22;31489;51.404;5.474;2024-03-08T02:08:09;8.80;60.60
45785;DHT22;31489;51.404;5.474;2024-03-08T02:10:39;8.80;60.50
45785;DHT22;31489;51.404;5.474;2024-03-08T02:13:05;8.80;60.50
45785;DHT22;31489;51.404;5.474;2024-03-08T02:18:18;8.70;60.50
45785;DHT22;31489;51.404;5.474;2024-03-08T02:21:06;8.70;60.50
45785;DHT22;31489;51.404;5.474;2024-03-08T02:23:34;8.60;60.50
45785;DHT22;31489;51.404;5.474;2024-03-08T02:26:00;8.60;60.60
45785;DHT22;31489;51.404;5.474;2024-03-08T02:28:26;8.60;60.60
45785;DHT22;31489;51.404;5.474;2024-03-08T02:30:52;8.60;60.60
45785;DHT22;31489;51.404;5.474;2024-03-08T02:33:22;8.50;60.70
45785;DHT22;31489;51.404;5.474;2024-03-08T02:35:49;8.50;60.70
45785;DHT22;31489;51.404;5.474;2024-03-08T02:38:15;8.50;60.70
45785;DHT22;31489;51.404;5.474;2024-03-08T02:40:46;8.50;60.80
45785;DHT22;31489;51.404;5.474;2024-03-08T02:43:12;8.50;60.70
45785;DHT22;31489;51.404;5.474;2024-03-08T02:45:40;8.40;60.70
45785;DHT22;31489;51.404;5.474;2024-03-08T02:48:07;8.40;60.60
45785;DHT22;31489;51.404;5.474;2024-03-08T02:50:33;8.40;60.70
45785;DHT22;31489;51.404;5.474;2024-03-08T02:53:00;8.40;61.30
45785;DHT22;31489;51.404;5.474;2024-03-08T02:55:26;8.40;60.60
45785;DHT22;31489;51.404;5.474;2024-03-08T02:57:52;8.40;60.60
45785;DHT22;31489;51.404;5.474;2024-03-08T03:00:20;8.40;60.60
45785;DHT22;31489;51.404;5.474;2024-03-08T03:02:47;8.30;60.60
45785;DHT22;31489;51.404;5.474;2024-03-08T03:05:12;8.30;60.50
45785;DHT22;31489;51.404;5.474;2024-03-08T03:07:38;8.30;60.50
45785;DHT22;31489;51.404;5.474;2024-03-08T03:10:04;8.20;60.50
45785;DHT22;31489;51.404;5.474;2024-03-08T03:12:31;8.20;60.60
45785;DHT22;31489;51.404;5.474;2024-03-08T03:14:57;8.20;60.70
45785;DHT22;31489;51.404;5.474;2024-03-08T03:17:26;8.10;60.70
45785;DHT22;31489;51.404;5.474;2024-03-08T03:19:52;8.10;60.70
45785;DHT22;31489;51.404;5.474;2024-03-08T03:22:19;8.10;60.60
45785;DHT22;31489;51.404;5.474;2024-03-08T03:24:45;8.10;60.80
45785;DHT22;31489;51.404;5.474;2024-03-08T03:27:12;8.00;61.40
45785;DHT22;31489;51.404;5.474;2024-03-08T03:29:42;8.10;61.40
45785;DHT22;31489;51.404;5.474;2024-03-08T03:32:11;8.00;60.80
45785;DHT22;31489;51.404;5.474;2024-03-08T03:34:37;8.00;60.70
45785;DHT22;31489;51.404;5.474;2024-03-08T03:37:03;8.00;60.70
45785;DHT22;31489;51.404;5.474;2024-03-08T03:39:30;8.00;60.70
45785;DHT22;31489;51.404;5.474;2024-03-08T03:42:00;8.00;60.80
45785;DHT22;31489;51.404;5.474;2024-03-08T03:44:28;7.90;61.30
45785;DHT22;31489;51.404;5.474;2024-03-08T03:46:53;7.90;60.80
45785;DHT22;31489;51.404;5.474;2024-03-08T03:49:19;7.90;60.90
45785;DHT22;31489;51.404;5.474;2024-03-08T03:51:46;7.90;60.80
45785;DHT22;31489;51.404;5.474;2024-03-08T03:54:12;7.90;60.80
45785;DHT22;31489;51.404;5.474;2024-03-08T03:56:38;7.80;60.80
45785;DHT22;31489;51.404;5.474;2024-03-08T03:59:05;7.80;60.70
45785;DHT22;31489;51.404;5.474;2024-03-08T04:01:41;7.80;60.90
45785;DHT22;31489;51.404;5.474;2024-03-08T04:04:07;7.80;60.90
45785;DHT22;31489;51.404;5.474;2024-03-08T04:06:32;7.80;60.80
45785;DHT22;31489;51.404;5.474;2024-03-08T04:08:58;7.80;60.80
45785;DHT22;31489;51.404;5.474;2024-03-08T04:11:24;7.70;60.90
45785;DHT22;31489;51.404;5.474;2024-03-08T04:13:49;7.80;60.90
45785;DHT22;31489;51.404;5.474;2024-03-08T04:16:15;7.80;61.00
45785;DHT22;31489;51.404;5.474;2024-03-08T04:18:41;7.70;60.80
45785;DHT22;31489;51.404;5.474;2024-03-08T04:21:09;7.70;60.70
45785;DHT22;31489;51.404;5.474;2024-03-08T04:23:35;7.70;60.80
45785;DHT22;31489;51.404;5.474;2024-03-08T04:26:02;7.70;60.80
45785;DHT22;31489;51.404;5.474;2024-03-08T04:28:29;7.60;60.90
45785;DHT22;31489;51.404;5.474;2024-03-08T04:30:55;7.60;60.90
45785;DHT22;31489;51.404;5.474;2024-03-08T04:33:21;7.70;61.00
45785;DHT22;31489;51.404;5.474;2024-03-08T04:35:48;7.60;60.80
45785;DHT22;31489;51.404;5.474;2024-03-08T04:38:14;7.60;60.90
45785;DHT22;31489;51.404;5.474;2024-03-08T04:40:43;7.60;60.90
45785;DHT22;31489;51.404;5.474;2024-03-08T04:43:09;7.60;60.90
45785;DHT22;31489;51.404;5.474;2024-03-08T04:45:36;7.60;61.00
45785;DHT22;31489;51.404;5.474;2024-03-08T04:48:02;7.50;61.10
45785;DHT22;31489;51.404;5.474;2024-03-08T04:50:31;7.50;61.00
45785;DHT22;31489;51.404;5.474;2024-03-08T04:52:56;7.50;60.90
45785;DHT22;31489;51.404;5.474;2024-03-08T04:55:22;7.50;60.90
45785;DHT22;31489;51.404;5.474;2024-03-08T04:57:48;7.50;60.90
45785;DHT22;31489;51.404;5.474;2024-03-08T05:00:14;7.50;61.00
45785;DHT22;31489;51.404;5.474;2024-03-08T05:02:41;7.50;61.00
45785;DHT22;31489;51.404;5.474;2024-03-08T05:05:07;7.50;61.00
45785;DHT22;31489;51.404;5.474;2024-03-08T05:07:34;7.50;61.20
45785;DHT22;31489;51.404;5.474;2024-03-08T05:10:00;7.50;61.10
45785;DHT22;31489;51.404;5.474;2024-03-08T05:12:27;7.50;61.20
45785;DHT22;31489;51.404;5.474;2024-03-08T05:14:53;7.50;61.30
45785;DHT22;31489;51.404;5.474;2024-03-08T05:17:19;7.50;61.30
45785;DHT22;31489;51.404;5.474;2024-03-08T05:19:45;7.40;61.10
45785;DHT22;31489;51.404;5.474;2024-03-08T05:22:10;7.40;61.00
45785;DHT22;31489;51.404;5.474;2024-03-08T05:24:36;7.40;61.00
45785;DHT22;31489;51.404;5.474;2024-03-08T05:27:02;7.40;61.10
45785;DHT22;31489;51.404;5.474;2024-03-08T05:29:29;7.40;61.00
45785;DHT22;31489;51.404;5.474;2024-03-08T05:31:55;7.40;61.10
45785;DHT22;31489;51.404;5.474;2024-03-08T05:34:22;7.40;61.30
45785;DHT22;31489;51.404;5.474;2024-03-08T05:36:48;7.30;61.20
45785;DHT22;31489;51.404;5.474;2024-03-08T05:39:18;7.30;61.30
45785;DHT22;31489;51.404;5.474;2024-03-08T05:41:44;7.40;61.30
45785;DHT22;31489;51.404;5.474;2024-03-08T05:44:11;7.30;61.20
45785;DHT22;31489;51.404;5.474;2024-03-08T05:46:38;7.30;61.20
45785;DHT22;31489;51.404;5.474;2024-03-08T05:49:04;7.30;61.30
45785;DHT22;31489;51.404;5.474;2024-03-08T05:51:36;7.30;61.30
45785;DHT22;31489;51.404;5.474;2024-03-08T05:54:12;7.30;61.40
45785;DHT22;31489;51.404;5.474;2024-03-08T05:56:38;7.30;61.30
45785;DHT22;31489;51.404;5.474;2024-03-08T05:59:06;7.30;61.50
45785;DHT22;31489;51.404;5.474;2024-03-08T06:01:37;7.30;61.50
45785;DHT22;31489;51.404;5.474;2024-03-08T06:04:03;7.30;61.30
45785;DHT22;31489;51.404;5.474;2024-03-08T06:06:29;7.20;61.30
45785;DHT22;31489;51.404;5.474;2024-03-08T06:08:55;7.30;61.30
45785;DHT22;31489;51.404;5.474;2024-03-08T06:11:33;7.30;61.30
45785;DHT22;31489;51.404;5.474;2024-03-08T06:13:59;7.20;61.20
45785;DHT22;31489;51.404;5.474;2024-03-08T06:16:28;7.20;61.40
45785;DHT22;31489;51.404;5.474;2024-03-08T06:18:55;7.20;61.40
45785;DHT22;31489;51.404;5.474;2024-03-08T06:21:21;7.20;61.50
45785;DHT22;31489;51.404;5.474;2024-03-08T06:23:48;7.20;61.40
45785;DHT22;31489;51.404;5.474;2024-03-08T06:26:13;7.20;61.50
45785;DHT22;31489;51.404;5.474;2024-03-08T06:28:39;7.20;61.60
45785;DHT22;31489;51.404;5.474;2024-03-08T06:31:05;7.10;61.50
45785;DHT22;31489;51.404;5.474;2024-03-08T06:33:32;7.20;61.80
45785;DHT22;31489;51.404;5.474;2024-03-08T06:35:57;7.20;61.80
45785;DHT22;31489;51.404;5.474;2024-03-08T06:38:24;7.10;61.60
45785;DHT22;31489;51.404;5.474;2024-03-08T06:40:50;7.20;61.70
45785;DHT22;31489;51.404;5.474;2024-03-08T06:43:17;7.20;61.70
45785;DHT22;31489;51.404;5.474;2024-03-08T06:45:44;7.20;61.80
45785;DHT22;31489;51.404;5.474;2024-03-08T06:48:19;7.20;61.80
45785;DHT22;31489;51.404;5.474;2024-03-08T06:50:45;7.20;61.90
45785;DHT22;31489;51.404;5.474;2024-03-08T06:53:12;7.20;61.90
45785;DHT22;31489;51.404;5.474;2024-03-08T06:55:37;7.20;61.90
45785;DHT22;31489;51.404;5.474;2024-03-08T06:58:04;7.20;61.90
45785;DHT22;31489;51.404;5.474;2024-03-08T07:00:29;7.20;61.90
45785;DHT22;31489;51.404;5.474;2024-03-08T07:02:56;7.20;61.90
45785;DHT22;31489;51.404;5.474;2024-03-08T07:05:26;7.30;61.80
45785;DHT22;31489;51.404;5.474;2024-03-08T07:07:52;7.30;61.80
45785;DHT22;31489;51.404;5.474;2024-03-08T07:10:18;7.30;61.90
45785;DHT22;31489;51.404;5.474;2024-03-08T07:12:44;7.30;61.80
45785;DHT22;31489;51.404;5.474;2024-03-08T07:15:12;7.30;61.80
45785;DHT22;31489;51.404;5.474;2024-03-08T07:17:44;7.30;62.00
45785;DHT22;31489;51.404;5.474;2024-03-08T07:20:10;7.30;62.20
45785;DHT22;31489;51.404;5.474;2024-03-08T07:22:38;7.30;62.10
45785;DHT22;31489;51.404;5.474;2024-03-08T07:25:07;7.30;62.00
45785;DHT22;31489;51.404;5.474;2024-03-08T07:27:34;7.40;62.20
45785;DHT22;31489;51.404;5.474;2024-03-08T07:30:03;7.40;62.10
45785;DHT22;31489;51.404;5.474;2024-03-08T07:32:28;7.40;62.30
45785;DHT22;31489;51.404;5.474;2024-03-08T07:34:56;7.40;62.10
45785;DHT22;31489;51.404;5.474;2024-03-08T07:37:21;7.40;62.30
45785;DHT22;31489;51.404;5.474;2024-03-08T07:39:47;7.50;62.30
45785;DHT22;31489;51.404;5.474;2024-03-08T07:42:13;7.50;62.20
45785;DHT22;31489;51.404;5.474;2024-03-08T07:44:39;7.50;62.10
45785;DHT22;31489;51.404;5.474;2024-03-08T07:47:05;7.60;62.10
45785;DHT22;31489;51.404;5.474;2024-03-08T07:49:37;7.60;62.30
45785;DHT22;31489;51.404;5.474;2024-03-08T07:52:03;7.60;62.30
45785;DHT22;31489;51.404;5.474;2024-03-08T07:54:30;7.70;62.40
45785;DHT22;31489;51.404;5.474;2024-03-08T07:56:56;7.70;62.20
45785;DHT22;31489;51.404;5.474;2024-03-08T07:59:21;7.70;62.30
45785;DHT22;31489;51.404;5.474;2024-03-08T08:01:47;7.80;62.30
45785;DHT22;31489;51.404;5.474;2024-03-08T08:04:13;7.90;62.30
45785;DHT22;31489;51.404;5.474;2024-03-08T08:06:40;7.90;62.20
45785;DHT22;31489;51.404;5.474;2024-03-08T08:09:10;7.90;62.10
45785;DHT22;31489;51.404;5.474;2024-03-08T08:11:40;8.00;61.90
45785;DHT22;31489;51.404;5.474;2024-03-08T08:14:09;8.00;62.00
45785;DHT22;31489;51.404;5.474;2024-03-08T08:16:35;8.00;62.10
45785;DHT22;31489;51.404;5.474;2024-03-08T08:19:02;8.10;62.30
45785;DHT22;31489;51.404;5.474;2024-03-08T08:21:34;8.10;62.20
45785;DHT22;31489;51.404;5.474;2024-03-08T08:23:59;8.20;62.40
45785;DHT22;31489;51.404;5.474;2024-03-08T08:26:25;8.20;62.30
45785;DHT22;31489;51.404;5.474;2024-03-08T08:28:51;8.30;62.30
45785;DHT22;31489;51.404;5.474;2024-03-08T08:31:18;8.30;62.20
45785;DHT22;31489;51.404;5.474;2024-03-08T08:33:44;8.40;62.10
45785;DHT22;31489;51.404;5.474;2024-03-08T08:36:10;8.40;62.20
45785;DHT22;31489;51.404;5.474;2024-03-08T08:38:36;8.50;62.00
45785;DHT22;31489;51.404;5.474;2024-03-08T08:41:02;8.50;62.00
45785;DHT22;31489;51.404;5.474;2024-03-08T08:43:27;8.60;62.10
45785;DHT22;31489;51.404;5.474;2024-03-08T08:45:53;8.60;61.80
45785;DHT22;31489;51.404;5.474;2024-03-08T08:48:20;8.70;62.00
45785;DHT22;31489;51.404;5.474;2024-03-08T08:50:46;8.80;62.10
45785;DHT22;31489;51.404;5.474;2024-03-08T08:53:12;8.80;61.80
45785;DHT22;31489;51.404;5.474;2024-03-08T08:55:42;8.90;61.80
45785;DHT22;31489;51.404;5.474;2024-03-08T08:58:08;8.90;61.80
45785;DHT22;31489;51.404;5.474;2024-03-08T09:00:33;9.00;62.00
45785;DHT22;31489;51.404;5.474;2024-03-08T09:03:00;9.10;62.00
45785;DHT22;31489;51.404;5.474;2024-03-08T09:05:27;9.20;61.80
45785;DHT22;31489;51.404;5.474;2024-03-08T09:07:53;9.20;61.70
45785;DHT22;31489;51.404;5.474;2024-03-08T09:10:19;9.30;61.70
45785;DHT22;31489;51.404;5.474;2024-03-08T09:12:45;9.30;61.60
45785;DHT22;31489;51.404;5.474;2024-03-08T09:15:10;9.40;61.50
45785;DHT22;31489;51.404;5.474;2024-03-08T09:17:37;9.50;61.50
45785;DHT22;31489;51.404;5.474;2024-03-08T09:20:06;9.50;61.20
45785;DHT22;31489;51.404;5.474;2024-03-08T09:22:32;9.60;61.30
45785;DHT22;31489;51.404;5.474;2024-03-08T09:24:58;9.60;61.10
45785;DHT22;31489;51.404;5.474;2024-03-08T09:27:23;9.70;61.20
45785;DHT22;31489;51.404;5.474;2024-03-08T09:29:49;9.80;60.90
45785;DHT22;31489;51.404;5.474;2024-03-08T09:32:21;9.90;61.10
45785;DHT22;31489;51.404;5.474;2024-03-08T09:34:48;9.90;61.00
45785;DHT22;31489;51.404;5.474;2024-03-08T09:37:14;10.00;60.90
45785;DHT22;31489;51.404;5.474;2024-03-08T09:39:39;10.10;61.10
45785;DHT22;31489;51.404;5.474;2024-03-08T09:42:05;10.20;60.70
45785;DHT22;31489;51.404;5.474;2024-03-08T09:44:31;10.20;60.80
45785;DHT22;31489;51.404;5.474;2024-03-08T09:46:58;10.30;60.40
45785;DHT22;31489;51.404;5.474;2024-03-08T09:49:24;10.40;60.50
45785;DHT22;31489;51.404;5.474;2024-03-08T09:51:50;10.50;60.50
45785;DHT22;31489;51.404;5.474;2024-03-08T09:54:17;10.50;60.30
45785;DHT22;31489;51.404;5.474;2024-03-08T09:56:43;10.60;60.00
45785;DHT22;31489;51.404;5.474;2024-03-08T09:59:11;10.70;60.00
45785;DHT22;31489;51.404;5.474;2024-03-08T10:01:37;10.80;59.90
45785;DHT22;31489;51.404;5.474;2024-03-08T10:04:06;10.90;59.80
45785;DHT22;31489;51.404;5.474;2024-03-08T10:06:32;11.00;59.90
45785;DHT22;31489;51.404;5.474;2024-03-08T10:08:58;11.10;59.80
45785;DHT22;31489;51.404;5.474;2024-03-08T10:11:27;11.10;59.70
45785;DHT22;31489;51.404;5.474;2024-03-08T10:13:53;11.20;59.70
45785;DHT22;31489;51.404;5.474;2024-03-08T10:16:18;11.30;59.90
45785;DHT22;31489;51.404;5.474;2024-03-08T10:18:47;11.40;59.80
45785;DHT22;31489;51.404;5.474;2024-03-08T10:21:13;11.50;59.10
45785;DHT22;31489;51.404;5.474;2024-03-08T10:23:40;11.60;59.30
45785;DHT22;31489;51.404;5.474;2024-03-08T10:26:13;11.80;60.30
45785;DHT22;31489;51.404;5.474;2024-03-08T10:28:45;12.10;60.60
45785;DHT22;31489;51.404;5.474;2024-03-08T10:31:16;12.50;61.10
45785;DHT22;31489;51.404;5.474;2024-03-08T10:33:42;12.90;61.50
45785;DHT22;31489;51.404;5.474;2024-03-08T10:36:08;13.40;61.60
45785;DHT22;31489;51.404;5.474;2024-03-08T10:38:36;13.90;61.80
45785;DHT22;31489;51.404;5.474;2024-03-08T10:41:05;14.40;60.00
45785;DHT22;31489;51.404;5.474;2024-03-08T10:43:36;14.90;59.00
45785;DHT22;31489;51.404;5.474;2024-03-08T10:46:37;15.50;58.80
45785;DHT22;31489;51.404;5.474;2024-03-08T10:49:15;16.20;56.70
45785;DHT22;31489;51.404;5.474;2024-03-08T10:51:42;16.90;56.00
45785;DHT22;31489;51.404;5.474;2024-03-08T10:54:10;17.40;56.00
45785;DHT22;31489;51.404;5.474;2024-03-08T10:56:39;17.90;53.70
45785;DHT22;31489;51.404;5.474;2024-03-08T10:59:07;18.30;52.30
45785;DHT22;31489;51.404;5.474;2024-03-08T11:01:34;18.80;52.00
45785;DHT22;31489;51.404;5.474;2024-03-08T11:03:59;19.10;51.80
45785;DHT22;31489;51.404;5.474;2024-03-08T11:11:48;20.20;49.30
45785;DHT22;31489;51.404;5.474;2024-03-08T11:14:46;20.60;49.10
45785;DHT22;31489;51.404;5.474;2024-03-08T11:17:15;20.90;48.40
45785;DHT22;31489;51.404;5.474;2024-03-08T11:19:46;21.10;48.30
45785;DHT22;31489;51.404;5.474;2024-03-08T11:22:29;21.40;46.00
45785;DHT22;31489;51.404;5.474;2024-03-08T11:25:04;21.70;45.20
45785;DHT22;31489;51.404;5.474;2024-03-08T11:27:35;21.80;44.50
45785;DHT22;31489;51.404;5.474;2024-03-08T11:30:05;22.00;44.60
45785;DHT22;31489;51.404;5.474;2024-03-08T11:32:36;22.20;44.50
45785;DHT22;31489;51.404;5.474;2024-03-08T11:35:06;22.30;44.30
45785;DHT22;31489;51.404;5.474;2024-03-08T11:37:34;22.50;42.30
45785;DHT22;31489;51.404;5.474;2024-03-08T11:40:12;22.60;42.00
45785;DHT22;31489;51.404;5.474;2024-03-08T11:42:45;22.60;41.30
45785;DHT22;31489;51.404;5.474;2024-03-08T11:45:17;22.70;41.20
45785;DHT22;31489;51.404;5.474;2024-03-08T11:47:46;22.80;42.00
45785;DHT22;31489;51.404;5.474;2024-03-08T11:50:19;22.80;40.90
45785;DHT22;31489;51.404;5.474;2024-03-08T11:52:46;22.90;39.80
45785;DHT22;31489;51.404;5.474;2024-03-08T11:55:12;22.90;39.60
45785;DHT22;31489;51.404;5.474;2024-03-08T11:57:38;22.90;39.20
45785;DHT22;31489;51.404;5.474;2024-03-08T12:00:04;22.90;40.00
45785;DHT22;31489;51.404;5.474;2024-03-08T12:02:34;22.90;39.80
45785;DHT22;31489;51.404;5.474;2024-03-08T12:05:08;22.90;39.70
45785;DHT22;31489;51.404;5.474;2024-03-08T12:07:41;23.00;40.10
45785;DHT22;31489;51.404;5.474;2024-03-08T12:10:19;23.10;39.60
45785;DHT22;31489;51.404;5.474;2024-03-08T12:12:52;23.10;38.70
45785;DHT22;31489;51.404;5.474;2024-03-08T12:15:20;23.20;38.30
45785;DHT22;31489;51.404;5.474;2024-03-08T12:17:50;23.20;38.20
45785;DHT22;31489;51.404;5.474;2024-03-08T12:22:48;23.20;37.40
45785;DHT22;31489;51.404;5.474;2024-03-08T12:25:14;23.20;38.40
45785;DHT22;31489;51.404;5.474;2024-03-08T12:27:44;23.20;38.00
45785;DHT22;31489;51.404;5.474;2024-03-08T12:30:27;23.30;37.50
45785;DHT22;31489;51.404;5.474;2024-03-08T12:33:00;23.40;37.20
45785;DHT22;31489;51.404;5.474;2024-03-08T12:35:29;23.40;37.20
45785;DHT22;31489;51.404;5.474;2024-03-08T12:37:56;23.30;37.40
45785;DHT22;31489;51.404;5.474;2024-03-08T12:40:32;23.30;37.10
45785;DHT22;31489;51.404;5.474;2024-03-08T12:43:01;23.30;36.30
45785;DHT22;31489;51.404;5.474;2024-03-08T12:45:28;23.20;36.90
45785;DHT22;31489;51.404;5.474;2024-03-08T12:47:54;23.20;36.80
45785;DHT22;31489;51.404;5.474;2024-03-08T12:50:23;23.10;36.70
45785;DHT22;31489;51.404;5.474;2024-03-08T12:52:52;23.10;36.00
45785;DHT22;31489;51.404;5.474;2024-03-08T12:55:18;23.00;36.60
45785;DHT22;31489;51.404;5.474;2024-03-08T12:57:46;23.00;36.50
45785;DHT22;31489;51.404;5.474;2024-03-08T13:00:12;23.00;36.70
45785;DHT22;31489;51.404;5.474;2024-03-08T13:02:45;22.90;36.90
45785;DHT22;31489;51.404;5.474;2024-03-08T13:05:11;23.00;36.90
45785;DHT22;31489;51.404;5.474;2024-03-08T13:07:42;23.00;37.10
45785;DHT22;31489;51.404;5.474;2024-03-08T13:10:12;23.00;37.00
45785;DHT22;31489;51.404;5.474;2024-03-08T13:12:43;23.00;37.00
45785;DHT22;31489;51.404;5.474;2024-03-08T13:15:09;23.00;36.80
45785;DHT22;31489;51.404;5.474;2024-03-08T13:17:55;23.00;36.30
45785;DHT22;31489;51.404;5.474;2024-03-08T13:20:22;23.00;38.80
45785;DHT22;31489;51.404;5.474;2024-03-08T13:22:48;23.00;37.70
45785;DHT22;31489;51.404;5.474;2024-03-08T13:25:14;22.90;36.80
45785;DHT22;31489;51.404;5.474;2024-03-08T13:27:42;22.90;36.70
45785;DHT22;31489;51.404;5.474;2024-03-08T13:30:09;22.90;36.60
45785;DHT22;31489;51.404;5.474;2024-03-08T13:32:44;22.90;36.50
45785;DHT22;31489;51.404;5.474;2024-03-08T13:35:11;22.90;36.20
45785;DHT22;31489;51.404;5.474;2024-03-08T13:37:42;22.80;36.60
45785;DHT22;31489;51.404;5.474;2024-03-08T13:43:31;22.80;36.30
45785;DHT22;31489;51.404;5.474;2024-03-08T13:45:59;22.70;36.60
45785;DHT22;31489;51.404;5.474;2024-03-08T13:48:25;22.70;36.00
45785;DHT22;31489;51.404;5.474;2024-03-08T13:50:51;22.70;35.60
45785;DHT22;31489;51.404;5.474;2024-03-08T13:53:17;22.60;35.40
45785;DHT22;31489;51.404;5.474;2024-03-08T13:55:42;22.50;35.70
45785;DHT22;31489;51.404;5.474;2024-03-08T13:58:08;22.50;36.00
45785;DHT22;31489;51.404;5.474;2024-03-08T14:00:36;22.50;36.10
45785;DHT22;31489;51.404;5.474;2024-03-08T14:03:04;22.40;35.80
45785;DHT22;31489;51.404;5.474;2024-03-08T14:05:38;22.50;35.80
45785;DHT22;31489;51.404;5.474;2024-03-08T14:08:05;22.50;36.00
45785;DHT22;31489;51.404;5.474;2024-03-08T14:10:35;22.50;35.70
45785;DHT22;31489;51.404;5.474;2024-03-08T14:13:03;22.50;36.10
45785;DHT22;31489;51.404;5.474;2024-03-08T14:15:31;22.50;35.90
45785;DHT22;31489;51.404;5.474;2024-03-08T14:17:56;22.50;35.70
45785;DHT22;31489;51.404;5.474;2024-03-08T14:20:23;22.50;35.90
45785;DHT22;31489;51.404;5.474;2024-03-08T14:22:55;22.50;35.70
45785;DHT22;31489;51.404;5.474;2024-03-08T14:25:21;22.50;35.30
45785;DHT22;31489;51.404;5.474;2024-03-08T14:27:49;22.50;35.60
45785;DHT22;31489;51.404;5.474;2024-03-08T14:30:15;22.50;35.70
45785;DHT22;31489;51.404;5.474;2024-03-08T14:33:07;22.50;35.40
45785;DHT22;31489;51.404;5.474;2024-03-08T14:35:35;22.50;35.30
45785;DHT22;31489;51.404;5.474;2024-03-08T14:38:01;22.50;35.50
45785;DHT22;31489;51.404;5.474;2024-03-08T14:40:27;22.50;35.70
45785;DHT22;31489;51.404;5.474;2024-03-08T14:42:53;22.60;35.70
45785;DHT22;31489;51.404;5.474;2024-03-08T14:45:19;22.60;35.30
45785;DHT22;31489;51.404;5.474;2024-03-08T14:47:46;22.60;35.20
45785;DHT22;31489;51.404;5.474;2024-03-08T14:50:19;22.60;34.60
45785;DHT22;31489;51.404;5.474;2024-03-08T14:52:45;22.60;34.50
45785;DHT22;31489;51.404;5.474;2024-03-08T14:55:15;22.50;34.40
45785;DHT22;31489;51.404;5.474;2024-03-08T14:57:41;22.40;34.50
45785;DHT22;31489;51.404;5.474;2024-03-08T15:00:14;22.30;34.60
45785;DHT22;31489;51.404;5.474;2024-03-08T15:02:44;22.30;34.80
45785;DHT22;31489;51.404;5.474;2024-03-08T15:05:10;22.30;34.80
45785;DHT22;31489;51.404;5.474;2024-03-08T15:07:39;22.20;34.80
45785;DHT22;31489;51.404;5.474;2024-03-08T15:10:09;22.10;34.90
45785;DHT22;31489;51.404;5.474;2024-03-08T15:12:41;22.00;34.80
45785;DHT22;31489;51.404;5.474;2024-03-08T15:15:09;21.90;34.70
45785;DHT22;31489;51.404;5.474;2024-03-08T15:17:37;21.80;34.60
45785;DHT22;31489;51.404;5.474;2024-03-08T15:20:08;21.60;34.90
45785;DHT22;31489;51.404;5.474;2024-03-08T15:22:50;21.40;34.30
45785;DHT22;31489;51.404;5.474;2024-03-08T15:25:17;21.20;34.10
45785;DHT22;31489;51.404;5.474;2024-03-08T15:27:49;21.00;35.10
45785;DHT22;31489;51.404;5.474;2024-03-08T15:30:18;20.80;35.10
45785;DHT22;31489;51.404;5.474;2024-03-08T15:32:48;20.60;35.00
45785;DHT22;31489;51.404;5.474;2024-03-08T15:35:22;20.40;35.10
45785;DHT22;31489;51.404;5.474;2024-03-08T15:37:51;20.20;35.50
45785;DHT22;31489;51.404;5.474;2024-03-08T15:40:18;20.10;35.60
45785;DHT22;31489;51.404;5.474;2024-03-08T15:42:57;19.90;35.50
45785;DHT22;31489;51.404;5.474;2024-03-08T15:45:23;19.70;35.40
45785;DHT22;31489;51.404;5.474;2024-03-08T15:47:53;19.50;35.50
45785;DHT22;31489;51.404;5.474;2024-03-08T15:50:19;19.40;35.40
45785;DHT22;31489;51.404;5.474;2024-03-08T15:52:48;19.20;36.70
45785;DHT22;31489;51.404;5.474;2024-03-08T15:55:18;19.00;36.40
45785;DHT22;31489;51.404;5.474;2024-03-08T15:57:51;18.90;36.00